Time;durP1;ratioP1;P1;durP2;ratioP2;P2;SDS_P1;SDS_P2;PMS_P1;PMS_P2;Temp;Humidity;BMP_temperature;BMP_pressure;BME280_temperature;BME280_humidity;BME280_pressure;Samples;Min_cycle;Max_cycle;Signal;HPM_P1;HPM_P2
2023/08/25 00:01:30;;;;;;;5.70;5.17;;;20.80;99.90;;;;;;5073010;28;20550;-65
2023/08/25 00:03:56;;;;;;;5.50;4.67;;;20.70;99.90;;;;;;5073048;28;20439;-65
2023/08/25 00:06:23;;;;;;;6.00;4.90;;;20.70;99.90;;;;;;5072951;28;20435;-64
2023/08/25 00:08:50;;;;;;;4.17;3.87;;;20.70;99.90;;;;;;5073117;28;20439;-65
2023/08/25 00:11:18;;;;;;;5.83;5.20;;;20.70;99.90;;;;;;5073111;28;20550;-65
2023/08/25 00:13:45;;;;;;;5.93;5.33;;;20.70;99.90;;;;;;5072666;28;20791;-65
2023/08/25 00:16:12;;;;;;;6.30;5.13;;;20.70;99.90;;;;;;5072717;28;20490;-64
2023/08/25 00:18:38;;;;;;;6.03;5.50;;;20.70;99.90;;;;;;5072841;28;20890;-64
2023/08/25 00:21:05;;;;;;;6.00;5.13;;;20.70;99.90;;;;;;5072958;28;20968;-65
2023/08/25 00:23:32;;;;;;;5.67;5.00;;;20.70;99.90;;;;;;5073533;28;20435;-65
2023/08/25 00:25:59;;;;;;;5.77;5.03;;;20.60;99.90;;;;;;5074654;28;20435;-65
2023/08/25 00:28:27;;;;;;;5.80;4.07;;;20.60;99.90;;;;;;5078183;28;20465;-65
2023/08/25 00:30:54;;;;;;;5.53;4.97;;;20.60;99.90;;;;;;5079818;28;20462;-65
2023/08/25 00:33:21;;;;;;;7.53;4.70;;;20.70;99.90;;;;;;5080955;28;20439;-65
2023/08/25 00:35:48;;;;;;;9.03;5.63;;;20.70;99.90;;;;;;5080788;28;20951;-66
2023/08/25 00:38:14;;;;;;;6.13;5.53;;;20.80;99.90;;;;;;5078835;28;20485;-63
2023/08/25 00:40:41;;;;;;;5.17;4.67;;;20.80;99.90;;;;;;5076640;28;20463;-63
2023/08/25 00:43:08;;;;;;;7.77;4.47;;;20.80;99.90;;;;;;5076267;28;20439;-63
2023/08/25 00:45:39;;;;;;;6.23;5.63;;;20.80;99.90;;;;;;5076526;28;20451;-65
2023/08/25 00:48:07;;;;;;;5.20;4.80;;;20.80;99.90;;;;;;5076552;28;20423;-64
2023/08/25 00:50:35;;;;;;;6.77;4.77;;;20.90;99.90;;;;;;5076394;28;20439;-63
2023/08/25 00:53:02;;;;;;;4.97;4.20;;;20.90;99.90;;;;;;5076112;28;20454;-65
2023/08/25 00:55:28;;;;;;;6.83;4.27;;;20.90;99.90;;;;;;5076498;28;20492;-65
2023/08/25 00:57:57;;;;;;;5.00;4.00;;;21.00;99.90;;;;;;5076387;28;20478;-65
2023/08/25 01:00:25;;;;;;;4.23;3.83;;;21.00;99.90;;;;;;5076181;28;20481;-65
2023/08/25 01:02:55;;;;;;;4.20;3.73;;;21.00;99.90;;;;;;5076091;28;20443;-64
2023/08/25 01:05:22;;;;;;;5.83;3.10;;;21.00;99.90;;;;;;5076322;28;20439;-65
2023/08/25 01:07:49;;;;;;;6.07;4.80;;;21.10;99.90;;;;;;5075904;28;20929;-64
2023/08/25 01:10:16;;;;;;;5.97;4.40;;;21.10;99.90;;;;;;5075861;28;20447;-64
2023/08/25 01:12:55;;;;;;;4.97;4.47;;;21.10;99.90;;;;;;5076140;28;20805;-64
2023/08/25 01:15:29;;;;;;;6.20;4.07;;;21.10;99.90;;;;;;5076820;28;20785;-64
2023/08/25 01:18:03;;;;;;;7.37;4.07;;;21.20;99.90;;;;;;5076602;28;20481;-64
2023/08/25 01:20:31;;;;;;;5.60;4.27;;;21.20;99.90;;;;;;5075575;28;20966;-64
2023/08/25 01:23:07;;;;;;;8.10;3.77;;;21.20;99.90;;;;;;5075835;28;20443;-64
2023/08/25 01:25:36;;;;;;;7.40;4.00;;;21.20;99.90;;;;;;5075736;28;20423;-66
2023/08/25 01:28:06;;;;;;;6.63;4.30;;;21.20;99.90;;;;;;5075700;28;20439;-64
2023/08/25 01:30:35;;;;;;;4.37;3.97;;;21.10;99.90;;;;;;5075669;28;20537;-65
2023/08/25 01:33:03;;;;;;;5.67;4.70;;;21.10;99.90;;;;;;5075611;28;20514;-64
2023/08/25 01:35:42;;;;;;;6.77;3.90;;;21.10;99.90;;;;;;5075666;28;20496;-64
2023/08/25 01:38:15;;;;;;;4.00;3.40;;;21.10;99.90;;;;;;5075698;28;20554;-64
2023/08/25 01:40:45;;;;;;;7.53;3.30;;;21.10;99.90;;;;;;5075435;28;20447;-64
2023/08/25 01:43:16;;;;;;;6.47;3.70;;;21.10;99.90;;;;;;5075703;28;20808;-64
2023/08/25 01:45:44;;;;;;;3.93;3.60;;;21.10;99.90;;;;;;5076184;28;20491;-65
2023/08/25 01:48:12;;;;;;;5.00;3.10;;;21.20;99.90;;;;;;5075216;28;20937;-65
2023/08/25 01:50:39;;;;;;;8.00;3.40;;;21.20;99.90;;;;;;5075796;28;20459;-65
2023/08/25 01:53:07;;;;;;;3.40;3.10;;;21.20;99.90;;;;;;5074972;28;20458;-65
2023/08/25 01:55:34;;;;;;;5.00;3.37;;;21.20;99.90;;;;;;5075019;28;20975;-65
2023/08/25 01:58:03;;;;;;;4.40;3.20;;;21.20;99.90;;;;;;5074621;28;20828;-65
2023/08/25 02:00:30;;;;;;;7.07;3.03;;;21.20;99.90;;;;;;5075147;28;20435;-65
2023/08/25 02:02:56;;;;;;;3.20;2.90;;;21.20;99.90;;;;;;5075253;28;20451;-65
2023/08/25 02:05:23;;;;;;;5.93;3.27;;;21.20;99.90;;;;;;5075107;28;20454;-65
2023/08/25 02:07:50;;;;;;;3.93;3.53;;;21.10;99.90;;;;;;5075457;28;20458;-65
2023/08/25 02:10:17;;;;;;;3.63;2.90;;;21.10;99.90;;;;;;5075508;28;20449;-65
2023/08/25 02:12:44;;;;;;;4.47;3.03;;;21.10;99.90;;;;;;5075470;28;20439;-65
2023/08/25 02:15:12;;;;;;;6.47;3.93;;;21.00;99.90;;;;;;5075646;28;20803;-65
2023/08/25 02:17:40;;;;;;;4.63;2.80;;;20.90;99.90;;;;;;5075933;28;20482;-65
2023/08/25 02:20:07;;;;;;;6.03;3.30;;;20.90;99.90;;;;;;5075265;28;20454;-65
2023/08/25 02:22:34;;;;;;;4.63;3.40;;;20.80;99.90;;;;;;5075317;28;20463;-65
2023/08/25 02:25:01;;;;;;;5.10;3.97;;;20.80;99.90;;;;;;5074784;28;20443;-64
2023/08/25 02:27:28;;;;;;;3.80;3.40;;;20.70;99.90;;;;;;5074553;28;20937;-64
2023/08/25 02:29:54;;;;;;;5.20;3.70;;;20.70;99.90;;;;;;5074837;28;20462;-65
2023/08/25 02:32:22;;;;;;;3.60;3.13;;;20.70;99.90;;;;;;5074711;28;20455;-65
2023/08/25 02:34:49;;;;;;;4.50;3.43;;;20.60;99.90;;;;;;5074713;28;20778;-65
2023/08/25 02:37:16;;;;;;;6.73;3.40;;;20.60;99.90;;;;;;5074657;28;20505;-65
2023/08/25 02:39:42;;;;;;;6.57;3.53;;;20.60;99.90;;;;;;5074395;28;20431;-65
2023/08/25 02:42:09;;;;;;;3.37;3.07;;;20.50;99.90;;;;;;5074312;28;20502;-65
2023/08/25 02:44:36;;;;;;;6.30;4.00;;;20.50;99.90;;;;;;5074291;28;20450;-65
2023/08/25 02:47:03;;;;;;;4.80;3.80;;;20.40;99.90;;;;;;5074360;28;20441;-65
2023/08/25 02:49:31;;;;;;;4.87;3.50;;;20.40;99.90;;;;;;5074357;28;20443;-65
2023/08/25 02:51:58;;;;;;;4.60;3.50;;;20.30;99.90;;;;;;5072982;28;20481;-64
2023/08/25 02:54:25;;;;;;;4.20;3.30;;;20.20;99.90;;;;;;5074197;28;20447;-65
2023/08/25 02:56:51;;;;;;;3.37;3.10;;;20.20;99.90;;;;;;5074236;28;20443;-64
2023/08/25 02:59:18;;;;;;;3.83;3.50;;;20.20;99.90;;;;;;5074001;28;20941;-64
2023/08/25 03:01:45;;;;;;;6.80;4.23;;;20.10;99.90;;;;;;5074452;28;20455;-64
2023/08/25 03:04:12;;;;;;;5.87;3.80;;;20.10;99.90;;;;;;5078368;28;20435;-65
2023/08/25 03:06:40;;;;;;;4.10;3.80;;;20.10;99.90;;;;;;5081369;28;20450;-64
2023/08/25 03:09:07;;;;;;;8.07;3.50;;;20.10;99.90;;;;;;5078990;28;20439;-65
2023/08/25 03:11:33;;;;;;;4.37;3.63;;;20.00;99.90;;;;;;5077358;28;20456;-64
2023/08/25 03:14:00;;;;;;;4.40;3.57;;;20.00;99.90;;;;;;5078291;28;20443;-64
2023/08/25 03:16:27;;;;;;;4.10;3.43;;;20.00;99.90;;;;;;5078700;28;20553;-64
2023/08/25 03:18:53;;;;;;;4.03;3.47;;;20.00;99.90;;;;;;5073749;28;20478;-64
2023/08/25 03:21:20;;;;;;;5.40;3.17;;;20.00;99.90;;;;;;5073223;28;21007;-64
2023/08/25 03:23:48;;;;;;;5.47;3.53;;;20.00;99.90;;;;;;5073594;28;20435;-64
2023/08/25 03:26:15;;;;;;;5.40;3.60;;;19.90;99.90;;;;;;5073415;28;20458;-62
2023/08/25 03:28:42;;;;;;;5.70;3.77;;;19.90;99.90;;;;;;5073374;28;20446;-65
2023/08/25 03:31:08;;;;;;;5.20;3.80;;;19.90;99.90;;;;;;5073507;28;20459;-65
2023/08/25 03:33:35;;;;;;;4.40;3.30;;;19.80;99.90;;;;;;5073553;28;20442;-64
2023/08/25 03:36:02;;;;;;;7.40;4.00;;;19.80;99.90;;;;;;5073548;28;20438;-64
2023/08/25 03:38:28;;;;;;;4.47;3.23;;;19.80;99.90;;;;;;5073309;28;20475;-63
2023/08/25 03:41:00;;;;;;;3.70;3.40;;;19.80;99.90;;;;;;5073019;28;20972;-65
2023/08/25 03:43:26;;;;;;;3.70;2.93;;;19.80;99.90;;;;;;5073451;28;20443;-64
2023/08/25 03:45:53;;;;;;;6.30;3.60;;;19.70;99.90;;;;;;5073061;28;20455;-64
2023/08/25 03:48:20;;;;;;;3.63;3.33;;;19.70;99.90;;;;;;5073401;28;20438;-64
2023/08/25 03:50:47;;;;;;;4.40;3.73;;;19.70;99.90;;;;;;5073156;28;20454;-63
2023/08/25 03:53:14;;;;;;;4.10;3.37;;;19.70;99.90;;;;;;5072892;28;20451;-64
2023/08/25 03:55:41;;;;;;;8.53;3.60;;;19.60;99.90;;;;;;5073190;28;20443;-63
2023/08/25 03:58:09;;;;;;;5.00;3.63;;;19.60;99.90;;;;;;5073033;28;20475;-63
2023/08/25 04:00:36;;;;;;;6.70;3.23;;;19.50;99.90;;;;;;5072934;28;20443;-63
2023/08/25 04:03:03;;;;;;;4.30;3.20;;;19.50;99.90;;;;;;5072366;28;20797;-63
2023/08/25 04:05:30;;;;;;;5.13;3.20;;;19.50;99.90;;;;;;5073069;28;20478;-64
2023/08/25 04:07:57;;;;;;;4.20;3.60;;;19.50;99.90;;;;;;5073515;28;20435;-63
2023/08/25 04:12:08;;;;;;;4.77;3.37;;;19.50;99.90;;;;;;5090563;27;20615;-63
2023/08/25 04:14:34;;;;;;;4.80;3.20;;;19.50;99.90;;;;;;5090713;28;20443;-63
2023/08/25 04:17:01;;;;;;;4.00;3.60;;;19.50;99.90;;;;;;5090632;28;20474;-63
2023/08/25 04:19:28;;;;;;;3.80;3.40;;;19.40;99.90;;;;;;5090299;28;20435;-63
2023/08/25 04:21:55;;;;;;;3.60;3.30;;;19.40;99.90;;;;;;5090188;28;20845;-63
2023/08/25 04:24:22;;;;;;;4.10;3.80;;;19.40;99.90;;;;;;5090466;28;20442;-63
2023/08/25 04:26:49;;;;;;;3.50;3.10;;;19.30;99.90;;;;;;5090229;28;20936;-63
2023/08/25 04:29:17;;;;;;;3.60;3.30;;;19.30;99.90;;;;;;5090998;28;20446;-64
2023/08/25 04:31:43;;;;;;;4.37;3.70;;;19.30;99.90;;;;;;5090152;28;20478;-61
2023/08/25 04:34:11;;;;;;;4.00;3.60;;;19.30;99.90;;;;;;5090187;28;20465;-63
2023/08/25 04:36:39;;;;;;;10.03;3.83;;;19.40;99.90;;;;;;5089867;28;20450;-63
2023/08/25 04:39:06;;;;;;;9.13;4.50;;;19.50;99.90;;;;;;5090211;28;20447;-63
2023/08/25 04:41:33;;;;;;;5.90;3.90;;;19.60;99.90;;;;;;5090141;28;20462;-64
2023/08/25 04:43:59;;;;;;;5.70;4.33;;;19.60;99.90;;;;;;5090352;28;20438;-64
2023/08/25 04:46:29;;;;;;;3.80;3.50;;;19.70;99.90;;;;;;5089981;28;20434;-64
2023/08/25 04:48:56;;;;;;;4.80;4.27;;;19.90;99.90;;;;;;5089893;28;20515;-64
2023/08/25 04:51:23;;;;;;;4.00;3.70;;;20.00;99.90;;;;;;5089537;28;20477;-64
2023/08/25 04:53:50;;;;;;;5.70;3.77;;;20.10;99.90;;;;;;5089601;28;20465;-65
2023/08/25 04:56:17;;;;;;;4.57;3.40;;;20.20;99.90;;;;;;5089733;28;20447;-64
2023/08/25 04:58:44;;;;;;;6.17;4.00;;;20.30;99.90;;;;;;5090037;28;20448;-64
2023/08/25 05:01:11;;;;;;;5.40;3.67;;;20.40;99.90;;;;;;5089056;28;20481;-64
2023/08/25 05:03:39;;;;;;;4.23;3.70;;;20.60;99.90;;;;;;5089282;28;20928;-64
2023/08/25 05:06:06;;;;;;;8.60;3.80;;;20.70;99.90;;;;;;5089246;28;20442;-64
2023/08/25 05:08:32;;;;;;;5.83;3.30;;;20.80;99.90;;;;;;5089771;28;20434;-64
2023/08/25 05:10:59;;;;;;;5.00;3.33;;;21.00;99.90;;;;;;5089043;28;20485;-63
2023/08/25 05:13:27;;;;;;;4.43;3.50;;;21.10;99.90;;;;;;5089575;28;20450;-65
2023/08/25 05:15:54;;;;;;;5.50;3.90;;;21.20;99.90;;;;;;5089171;28;20999;-66
2023/08/25 05:18:20;;;;;;;3.93;3.53;;;21.30;99.90;;;;;;5089997;28;20814;-64
2023/08/25 05:20:49;;;;;;;5.70;3.73;;;21.30;99.90;;;;;;5088990;28;20987;-65
2023/08/25 05:23:15;;;;;;;4.73;4.07;;;21.40;99.90;;;;;;5076867;28;20475;-65
2023/08/25 05:25:42;;;;;;;3.73;3.27;;;21.40;99.90;;;;;;5075569;28;20446;-65
2023/08/25 05:28:09;;;;;;;4.63;3.10;;;21.50;99.90;;;;;;5075842;28;20443;-65
2023/08/25 05:30:36;;;;;;;7.87;4.13;;;21.40;99.90;;;;;;5075626;28;20478;-67
2023/08/25 05:33:03;;;;;;;3.50;3.10;;;21.40;99.90;;;;;;5076219;28;20450;-65
2023/08/25 05:35:29;;;;;;;6.43;3.23;;;21.40;99.90;;;;;;5075696;28;20450;-65
2023/08/25 05:37:57;;;;;;;6.60;4.70;;;21.40;99.90;;;;;;5075602;28;20816;-65
2023/08/25 05:40:24;;;;;;;6.47;3.63;;;21.40;99.90;;;;;;5075625;28;20952;-65
2023/08/25 05:42:51;;;;;;;3.90;3.53;;;21.40;99.90;;;;;;5075683;28;20447;-65
2023/08/25 05:45:18;;;;;;;8.03;3.60;;;21.30;99.90;;;;;;5077354;28;20466;-65
2023/08/25 05:47:44;;;;;;;10.63;3.60;;;21.30;99.90;;;;;;5077977;28;20439;-65
2023/08/25 05:50:11;;;;;;;7.73;3.43;;;21.30;99.90;;;;;;5077441;28;20447;-65
2023/08/25 05:52:39;;;;;;;4.17;3.40;;;21.40;99.90;;;;;;5078304;28;20514;-65
2023/08/25 05:55:09;;;;;;;5.27;3.53;;;21.50;99.90;;;;;;5077959;28;20941;-65
2023/08/25 05:57:36;;;;;;;4.50;3.57;;;21.50;99.90;;;;;;5077902;28;20826;-65
2023/08/25 06:00:04;;;;;;;3.87;3.23;;;21.50;99.90;;;;;;5075210;28;20857;-65
2023/08/25 06:02:32;;;;;;;3.60;3.10;;;21.60;99.90;;;;;;5075264;28;20495;-62
2023/08/25 06:04:59;;;;;;;4.40;3.63;;;21.60;99.90;;;;;;5075163;28;20447;-65
2023/08/25 06:07:26;;;;;;;5.50;3.10;;;21.70;99.90;;;;;;5075155;28;20442;-65
2023/08/25 06:09:53;;;;;;;4.30;3.03;;;21.80;99.90;;;;;;5074979;28;20446;-65
2023/08/25 06:12:21;;;;;;;4.80;3.70;;;21.80;99.90;;;;;;5075669;28;20487;-65
2023/08/25 06:14:49;;;;;;;4.93;3.47;;;21.90;99.90;;;;;;5074989;28;20443;-65
2023/08/25 06:17:16;;;;;;;5.27;3.33;;;22.00;99.90;;;;;;5075033;28;20447;-65
2023/08/25 06:19:43;;;;;;;5.93;3.60;;;22.10;99.90;;;;;;5074959;28;20805;-65
2023/08/25 06:22:11;;;;;;;4.50;3.80;;;22.10;99.90;;;;;;5074242;28;21059;-65
2023/08/25 06:24:37;;;;;;;6.63;3.73;;;22.20;99.90;;;;;;5074901;28;20799;-66
2023/08/25 06:27:04;;;;;;;5.13;3.90;;;22.30;99.90;;;;;;5074363;28;20444;-65
2023/08/25 06:29:32;;;;;;;3.43;3.00;;;22.40;99.90;;;;;;5074544;28;20442;-65
2023/08/25 06:31:59;;;;;;;3.50;2.87;;;22.50;99.90;;;;;;5074456;28;20483;-65
2023/08/25 06:34:27;;;;;;;6.23;3.30;;;22.70;99.90;;;;;;5073088;28;20447;-65
2023/08/25 06:36:53;;;;;;;6.83;3.10;;;22.80;99.90;;;;;;5074227;28;20439;-65
2023/08/25 06:39:20;;;;;;;5.20;2.67;;;22.90;99.90;;;;;;5074154;28;20435;-65
2023/08/25 06:41:47;;;;;;;3.80;3.27;;;22.90;99.90;;;;;;5074481;28;20546;-65
2023/08/25 06:44:14;;;;;;;3.83;2.90;;;22.90;99.90;;;;;;5074092;28;20439;-65
2023/08/25 06:46:42;;;;;;;5.37;4.30;;;23.00;99.90;;;;;;5074148;28;20446;-65
2023/08/25 06:49:11;;;;;;;4.70;3.37;;;23.00;99.90;;;;;;5074058;28;20446;-64
2023/08/25 06:51:38;;;;;;;8.00;4.37;;;23.00;99.90;;;;;;5073889;28;20479;-64
2023/08/25 06:54:05;;;;;;;3.43;3.13;;;23.00;99.90;;;;;;5074117;28;20439;-65
2023/08/25 06:56:31;;;;;;;5.67;3.00;;;23.00;99.90;;;;;;5074145;28;20808;-64
2023/08/25 06:58:58;;;;;;;4.00;3.10;;;23.00;99.90;;;;;;5074128;28;20439;-64
2023/08/25 07:01:25;;;;;;;4.43;2.93;;;23.00;99.90;;;;;;5073848;28;20451;-65
2023/08/25 07:03:53;;;;;;;4.10;3.47;;;23.00;99.90;;;;;;5073894;28;20439;-65
2023/08/25 07:06:19;;;;;;;6.43;4.03;;;23.00;99.90;;;;;;5074647;28;20529;-64
2023/08/25 07:08:46;;;;;;;5.80;3.93;;;23.10;99.90;;;;;;5074764;28;20449;-64
2023/08/25 07:11:13;;;;;;;6.10;4.10;;;23.30;99.90;;;;;;5073388;28;20561;-64
2023/08/25 07:13:40;;;;;;;5.47;3.60;;;23.40;99.90;;;;;;5073963;28;20439;-65
2023/08/25 07:16:06;;;;;;;6.77;4.30;;;23.50;99.90;;;;;;5073680;28;20447;-66
2023/08/25 07:18:33;;;;;;;6.33;4.23;;;23.60;99.90;;;;;;5073591;28;20500;-64
2023/08/25 07:21:06;;;;;;;4.97;4.50;;;23.70;99.90;;;;;;5073594;28;20455;-64
2023/08/25 07:23:32;;;;;;;9.50;5.77;;;23.80;99.90;;;;;;5073763;28;20436;-65
2023/08/25 07:25:59;;;;;;;7.53;4.97;;;23.90;99.90;;;;;;5073700;28;20439;-64
2023/08/25 07:28:26;;;;;;;7.30;5.17;;;23.90;99.90;;;;;;5073308;28;20940;-64
2023/08/25 07:30:53;;;;;;;6.27;4.17;;;23.70;99.90;;;;;;5073319;28;20462;-65
2023/08/25 07:33:20;;;;;;;7.97;5.40;;;23.70;99.90;;;;;;5073138;28;20438;-65
2023/08/25 07:35:47;;;;;;;13.47;5.77;;;23.70;99.90;;;;;;5073193;28;20443;-65
2023/08/25 07:38:15;;;;;;;5.43;4.07;;;23.80;99.90;;;;;;5073355;28;20447;-65
2023/08/25 07:40:42;;;;;;;5.00;4.03;;;23.80;99.90;;;;;;5072954;28;20455;-64
2023/08/25 07:43:08;;;;;;;6.20;4.40;;;23.90;99.90;;;;;;5073419;28;20446;-64
2023/08/25 07:45:36;;;;;;;6.60;4.80;;;24.10;99.90;;;;;;5073104;28;20443;-64
2023/08/25 07:48:02;;;;;;;6.80;4.90;;;24.20;99.90;;;;;;5073024;28;20449;-66
2023/08/25 07:50:30;;;;;;;5.53;5.03;;;24.40;99.40;;;;;;5073177;28;20447;-65
2023/08/25 07:52:58;;;;;;;7.80;4.53;;;24.30;99.10;;;;;;5072863;28;20479;-65
2023/08/25 07:55:26;;;;;;;12.03;5.13;;;24.30;99.10;;;;;;5073699;28;20534;-64
2023/08/25 07:57:53;;;;;;;5.83;4.17;;;24.40;99.00;;;;;;5073467;28;20435;-64
2023/08/25 08:00:20;;;;;;;7.77;5.23;;;24.50;98.70;;;;;;5073268;28;20442;-65
2023/08/25 08:02:48;;;;;;;5.53;5.07;;;24.60;98.30;;;;;;5073093;28;20443;-65
2023/08/25 08:05:15;;;;;;;6.90;5.33;;;24.70;97.80;;;;;;5073192;28;20439;-65
2023/08/25 08:07:43;;;;;;;4.93;4.10;;;24.90;97.40;;;;;;5073294;28;20453;-64
2023/08/25 08:10:11;;;;;;;4.90;3.33;;;25.20;96.70;;;;;;5073379;28;20458;-64
2023/08/25 08:12:41;;;;;;;3.53;2.87;;;25.30;96.10;;;;;;5072937;28;20490;-64
2023/08/25 08:15:09;;;;;;;4.00;3.20;;;25.40;95.60;;;;;;5072975;28;20442;-64
2023/08/25 08:17:36;;;;;;;4.63;3.43;;;25.50;95.30;;;;;;5074757;28;20435;-63
2023/08/25 08:20:05;;;;;;;5.13;4.73;;;25.70;94.70;;;;;;5073841;28;20518;-65
2023/08/25 08:22:32;;;;;;;5.70;4.20;;;25.80;94.10;;;;;;5073644;28;20987;-64
2023/08/25 08:24:58;;;;;;;6.33;3.63;;;26.00;93.10;;;;;;5074176;28;20450;-65
2023/08/25 08:27:26;;;;;;;5.03;3.93;;;26.20;92.20;;;;;;5074929;28;20949;-65
2023/08/25 08:29:54;;;;;;;3.23;2.80;;;26.30;91.30;;;;;;5075693;28;20439;-66
2023/08/25 08:32:22;;;;;;;6.00;3.07;;;26.20;90.70;;;;;;5075017;28;20483;-64
2023/08/25 08:34:49;;;;;;;5.23;3.13;;;26.00;90.50;;;;;;5074413;28;20493;-64
2023/08/25 08:37:16;;;;;;;5.70;3.40;;;25.90;90.70;;;;;;5073294;28;20822;-65
2023/08/25 08:39:44;;;;;;;2.90;2.60;;;25.90;90.60;;;;;;5072853;28;20534;-65
2023/08/25 08:42:14;;;;;;;8.00;3.67;;;25.90;90.70;;;;;;5073062;28;20462;-65
2023/08/25 08:44:46;;;;;;;3.70;2.63;;;26.00;89.60;;;;;;5072524;28;20431;-65
2023/08/25 08:47:15;;;;;;;5.00;3.17;;;26.20;88.70;;;;;;5073638;28;20427;-65
2023/08/25 08:49:43;;;;;;;3.47;3.00;;;26.30;87.90;;;;;;5072784;28;20442;-65
2023/08/25 08:52:11;;;;;;;4.67;3.47;;;26.50;86.30;;;;;;5072652;28;20498;-65
2023/08/25 08:54:38;;;;;;;3.87;3.30;;;26.80;84.50;;;;;;5072760;28;20493;-65
2023/08/25 08:57:06;;;;;;;3.87;3.47;;;26.90;82.70;;;;;;5073348;28;20435;-65
2023/08/25 08:59:33;;;;;;;3.77;3.37;;;27.20;81.20;;;;;;5075938;28;20435;-65
2023/08/25 09:02:01;;;;;;;5.60;3.10;;;27.40;79.40;;;;;;5075774;28;20520;-65
2023/08/25 09:04:29;;;;;;;3.93;2.57;;;27.60;77.40;;;;;;5076339;28;20443;-65
2023/08/25 09:06:58;;;;;;;5.00;2.30;;;27.60;76.00;;;;;;5076161;28;20446;-63
2023/08/25 09:09:25;;;;;;;3.87;3.10;;;27.50;75.50;;;;;;5076192;28;20435;-65
2023/08/25 09:11:52;;;;;;;6.20;3.20;;;27.60;75.40;;;;;;5075546;28;20489;-65
2023/08/25 09:14:24;;;;;;;7.77;3.50;;;27.80;74.10;;;;;;5075923;28;20447;-65
2023/08/25 09:16:54;;;;;;;4.90;3.17;;;28.00;72.80;;;;;;5075673;28;20423;-65
2023/08/25 09:19:21;;;;;;;3.83;2.80;;;28.20;72.00;;;;;;5076163;28;20447;-65
2023/08/25 09:21:49;;;;;;;3.90;2.90;;;28.40;70.90;;;;;;5076028;28;20458;-66
2023/08/25 09:24:19;;;;;;;5.37;3.60;;;28.60;69.70;;;;;;5075565;28;20952;-66
2023/08/25 09:26:47;;;;;;;3.83;3.23;;;28.70;68.90;;;;;;5076080;28;20526;-66
2023/08/25 09:29:14;;;;;;;5.10;2.90;;;28.70;68.30;;;;;;5075818;28;20455;-64
2023/08/25 09:31:41;;;;;;;3.83;2.70;;;28.80;67.50;;;;;;5075553;28;20479;-66
2023/08/25 09:34:09;;;;;;;3.13;2.63;;;29.10;66.60;;;;;;5075597;28;20447;-65
2023/08/25 09:36:53;;;;;;;5.47;3.33;;;29.30;65.60;;;;;;5075715;28;20435;-65
2023/08/25 09:39:20;;;;;;;4.60;3.07;;;29.40;64.40;;;;;;5076034;28;20556;-65
2023/08/25 09:41:48;;;;;;;5.40;3.90;;;29.30;64.00;;;;;;5076406;28;20828;-64
2023/08/25 09:44:16;;;;;;;9.23;3.20;;;29.20;64.00;;;;;;5076252;28;20504;-66
2023/08/25 09:46:44;;;;;;;4.90;3.63;;;29.20;64.00;;;;;;5075847;28;20443;-66
2023/08/25 09:49:12;;;;;;;4.10;2.97;;;29.20;63.90;;;;;;5075682;28;20443;-66
2023/08/25 09:51:40;;;;;;;3.50;3.00;;;29.30;63.60;;;;;;5074905;28;20976;-66
2023/08/25 09:54:10;;;;;;;4.03;3.03;;;29.40;63.10;;;;;;5075374;28;20807;-66
2023/08/25 09:56:38;;;;;;;5.23;3.20;;;29.50;62.70;;;;;;5075478;28;20474;-64
2023/08/25 09:59:06;;;;;;;7.83;3.40;;;29.60;62.40;;;;;;5074780;28;20450;-66
2023/08/25 10:01:35;;;;;;;6.60;3.00;;;29.60;62.20;;;;;;5075876;28;20834;-66
2023/08/25 10:04:03;;;;;;;4.27;3.30;;;29.50;62.20;;;;;;5074643;28;20431;-64
2023/08/25 10:06:34;;;;;;;7.70;3.00;;;29.20;62.60;;;;;;5075186;28;20458;-65
2023/08/25 10:09:01;;;;;;;7.30;3.50;;;28.70;63.90;;;;;;5074769;28;20446;-65
2023/08/25 10:11:34;;;;;;;4.83;3.50;;;28.20;65.30;;;;;;5074686;28;20494;-65
2023/08/25 10:14:04;;;;;;;4.77;3.47;;;27.90;66.70;;;;;;5075083;28;20421;-65
2023/08/25 10:16:33;;;;;;;4.47;3.93;;;27.40;68.00;;;;;;5074901;28;20442;-65
2023/08/25 10:19:03;;;;;;;4.40;3.53;;;27.00;69.60;;;;;;5074916;28;20446;-65
2023/08/25 10:21:31;;;;;;;4.30;3.30;;;26.80;70.90;;;;;;5075553;28;20466;-65
2023/08/25 10:24:01;;;;;;;3.50;3.20;;;26.70;71.50;;;;;;5075042;28;20515;-64
2023/08/25 10:26:30;;;;;;;4.47;3.77;;;26.60;72.10;;;;;;5075128;28;20466;-65
2023/08/25 10:28:57;;;;;;;9.27;4.17;;;26.50;72.60;;;;;;5074723;28;20442;-65
2023/08/25 10:31:25;;;;;;;4.53;3.37;;;26.40;73.30;;;;;;5074845;28;20451;-66
2023/08/25 10:33:53;;;;;;;4.30;3.90;;;26.30;74.00;;;;;;5074485;28;20566;-65
2023/08/25 10:36:21;;;;;;;6.10;4.13;;;26.20;74.60;;;;;;5074516;28;20478;-65
2023/08/25 10:39:10;;;;;;;4.37;3.97;;;26.20;75.20;;;;;;5074366;28;20435;-65
2023/08/25 10:41:43;;;;;;;6.17;4.90;;;26.10;76.00;;;;;;5074266;28;20459;-65
2023/08/25 10:44:19;;;;;;;6.63;5.23;;;26.00;76.90;;;;;;5074393;28;20477;-65
2023/08/25 10:46:46;;;;;;;6.30;5.70;;;25.80;78.20;;;;;;5074410;28;20419;-65
2023/08/25 10:49:13;;;;;;;6.43;5.33;;;25.50;80.50;;;;;;5074104;28;20442;-65
2023/08/25 10:51:40;;;;;;;7.00;5.80;;;25.30;83.70;;;;;;5073855;28;20459;-65
2023/08/25 10:54:18;;;;;;;8.10;7.30;;;25.10;89.40;;;;;;5074103;28;20509;-64
2023/08/25 10:56:46;;;;;;;7.90;7.10;;;24.90;92.40;;;;;;5073955;28;20427;-65
2023/08/25 10:59:13;;;;;;;8.07;7.37;;;24.70;95.60;;;;;;5074366;28;20458;-65
2023/08/25 11:01:58;;;;;;;9.40;7.93;;;24.50;97.90;;;;;;5074475;28;20465;-65
2023/08/25 11:04:27;;;;;;;10.17;8.60;;;24.30;99.90;;;;;;5074723;28;20419;-64
2023/08/25 11:06:56;;;;;;;9.83;8.20;;;24.20;99.90;;;;;;5074455;28;20439;-67
2023/08/25 11:09:36;;;;;;;8.93;8.13;;;24.00;99.90;;;;;;5075164;28;20435;-66
2023/08/25 11:12:07;;;;;;;12.73;9.00;;;23.90;99.90;;;;;;5074335;28;20524;-66
2023/08/25 11:14:35;;;;;;;9.10;8.30;;;23.80;99.90;;;;;;5074014;28;20853;-64
2023/08/25 11:17:03;;;;;;;15.53;10.50;;;23.70;99.90;;;;;;5073716;28;20794;-66
2023/08/25 11:19:32;;;;;;;9.93;8.90;;;23.60;99.90;;;;;;5073370;28;20526;-68
2023/08/25 11:22:00;;;;;;;10.33;9.30;;;23.40;99.90;;;;;;5073227;28;20891;-66
2023/08/25 11:24:27;;;;;;;11.10;9.40;;;23.20;99.90;;;;;;5073575;28;20469;-67
2023/08/25 11:26:54;;;;;;;11.07;9.77;;;23.00;99.90;;;;;;5073178;28;20795;-66
2023/08/25 11:29:22;;;;;;;10.73;9.77;;;22.80;99.90;;;;;;5073351;28;20451;-64
2023/08/25 11:31:49;;;;;;;10.43;9.43;;;22.60;99.90;;;;;;5073184;28;20973;-65
2023/08/25 11:34:16;;;;;;;14.00;10.07;;;22.40;99.90;;;;;;5074439;28;20566;-65
2023/08/25 11:36:43;;;;;;;16.60;11.67;;;22.20;99.90;;;;;;5073494;28;20435;-65
2023/08/25 11:39:17;;;;;;;10.10;9.30;;;22.00;99.90;;;;;;5073348;28;20439;-66
2023/08/25 11:41:44;;;;;;;11.77;10.60;;;22.00;99.90;;;;;;5073404;28;20532;-65
2023/08/25 11:44:11;;;;;;;10.43;9.37;;;22.00;99.90;;;;;;5073374;28;20431;-66
2023/08/25 11:46:40;;;;;;;11.67;10.47;;;22.00;99.90;;;;;;5073391;28;20443;-65
2023/08/25 11:49:07;;;;;;;11.27;10.10;;;22.00;99.90;;;;;;5073297;28;20820;-65
2023/08/25 11:51:36;;;;;;;9.60;8.70;;;22.00;99.90;;;;;;5073371;28;20455;-65
2023/08/25 11:54:03;;;;;;;13.33;11.90;;;22.10;99.90;;;;;;5072888;28;20938;-66
2023/08/25 11:56:30;;;;;;;16.07;11.20;;;22.10;99.90;;;;;;5073225;28;20443;-65
2023/08/25 11:58:57;;;;;;;10.27;9.27;;;22.10;99.90;;;;;;5073674;28;20450;-65
2023/08/25 12:01:30;;;;;;;11.80;10.60;;;22.00;99.90;;;;;;5072830;28;20828;-65
2023/08/25 12:03:59;;;;;;;11.93;10.67;;;22.00;99.90;;;;;;5073037;28;20889;-67
2023/08/25 12:06:26;;;;;;;10.67;9.60;;;22.00;99.90;;;;;;5072767;28;20439;-64
2023/08/25 12:08:53;;;;;;;9.40;8.50;;;22.00;99.90;;;;;;5072555;28;20493;-65
2023/08/25 12:11:20;;;;;;;9.87;9.03;;;21.90;99.90;;;;;;5072274;28;20479;-65
2023/08/25 12:13:48;;;;;;;14.53;9.63;;;22.00;99.90;;;;;;5072477;28;20479;-65
2023/08/25 12:16:18;;;;;;;8.90;8.00;;;22.00;99.90;;;;;;5072605;28;20921;-66
2023/08/25 12:18:51;;;;;;;9.27;8.47;;;22.10;99.90;;;;;;5072915;28;20424;-65
2023/08/25 12:21:20;;;;;;;9.63;8.60;;;22.20;99.90;;;;;;5072361;28;21030;-65
2023/08/25 12:23:46;;;;;;;7.90;7.20;;;22.30;99.90;;;;;;5072760;28;20823;-66
2023/08/25 12:26:13;;;;;;;9.97;7.97;;;22.30;99.90;;;;;;5072698;28;20465;-67
2023/08/25 12:28:40;;;;;;;7.40;6.70;;;22.40;99.90;;;;;;5072717;28;20435;-66
2023/08/25 12:31:08;;;;;;;8.90;6.47;;;22.40;99.90;;;;;;5073626;28;20467;-65
2023/08/25 12:33:34;;;;;;;7.70;7.10;;;22.30;99.90;;;;;;5077092;28;20483;-65
2023/08/25 12:36:01;;;;;;;7.57;6.90;;;22.30;99.90;;;;;;5077521;28;20525;-64
2023/08/25 12:38:32;;;;;;;10.33;7.23;;;22.20;99.90;;;;;;5077422;28;20868;-64
2023/08/25 12:40:59;;;;;;;9.10;7.23;;;22.10;99.90;;;;;;5077022;28;20459;-64
2023/08/25 12:43:25;;;;;;;7.80;7.00;;;22.00;99.90;;;;;;5076992;28;20427;-67
2023/08/25 12:45:52;;;;;;;7.43;6.73;;;21.90;99.90;;;;;;5076677;28;20435;-65
2023/08/25 12:48:19;;;;;;;8.13;7.43;;;21.90;99.90;;;;;;5076094;28;20447;-64
2023/08/25 12:50:46;;;;;;;13.13;9.20;;;21.80;99.90;;;;;;5076331;28;20454;-65